Time;durP1;ratioP1;P1;durP2;ratioP2;P2;SDS_P1;SDS_P2;PMS_P1;PMS_P2;Temp;Humidity;BMP_temperature;BMP_pressure;BME280_temperature;BME280_humidity;BME280_pressure;Samples;Min_cycle;Max_cycle;Signal;HPM_P1;HPM_P2
2021/07/22 00:01:21;;;;;;;4.05;1.70;;;;;;;;;;5031525;28;20049;-70
2021/07/22 00:03:46;;;;;;;3.80;1.63;;;;;;;;;;5032164;28;20025;-71
2021/07/22 00:06:12;;;;;;;2.67;1.30;;;;;;;;;;5032018;28;20025;-70
2021/07/22 00:08:37;;;;;;;3.10;1.30;;;;;;;;;;5031885;28;20088;-71
2021/07/22 00:11:06;;;;;;;2.20;1.10;;;;;;;;;;5032252;28;20025;-71
2021/07/22 00:13:32;;;;;;;1.55;1.20;;;;;;;;;;5046481;28;20049;-71
2021/07/22 00:15:57;;;;;;;2.20;1.20;;;;;;;;;;5042660;28;20079;-70
2021/07/22 00:18:23;;;;;;;2.22;1.25;;;;;;;;;;5031873;28;20116;-71
2021/07/22 00:20:48;;;;;;;4.45;2.05;;;;;;;;;;5032094;28;20028;-70
2021/07/22 00:23:14;;;;;;;2.17;1.40;;;;;;;;;;5032684;28;20032;-71
2021/07/22 00:25:41;;;;;;;3.28;1.30;;;;;;;;;;5031642;28;20026;-71
2021/07/22 00:28:07;;;;;;;2.47;1.30;;;;;;;;;;5031366;28;20030;-71
2021/07/22 00:30:33;;;;;;;2.40;1.30;;;;;;;;;;5031636;28;20030;-70
2021/07/22 00:32:58;;;;;;;2.40;1.40;;;;;;;;;;5035146;28;20511;-71
2021/07/22 00:35:24;;;;;;;3.17;1.30;;;;;;;;;;5044590;28;20060;-70
2021/07/22 00:37:50;;;;;;;1.98;1.15;;;;;;;;;;5032747;28;20484;-71
2021/07/22 00:40:16;;;;;;;6.68;1.80;;;;;;;;;;5035056;28;20079;-70
2021/07/22 00:43:01;;;;;;;2.30;1.20;;;;;;;;;;5031432;28;20457;-71
2021/07/22 00:45:28;;;;;;;2.55;1.25;;;;;;;;;;5018708;28;20032;-70
2021/07/22 00:47:54;;;;;;;3.38;1.30;;;;;;;;;;5030982;28;20087;-71
2021/07/22 00:50:20;;;;;;;0.45;0.32;;;;;;;;;;5030810;28;20029;-71
2021/07/22 00:52:46;;;;;;;0.98;0.40;;;;;;;;;;5040199;28;20029;-70
2021/07/22 00:55:18;;;;;;;1.02;0.75;;;;;;;;;;5031777;28;20029;-70
2021/07/22 00:57:45;;;;;;;1.13;0.80;;;;;;;;;;5031766;28;20507;-71
2021/07/22 01:00:11;;;;;;;3.70;1.38;;;;;;;;;;5031189;28;20148;-70
2021/07/22 01:02:37;;;;;;;2.25;1.20;;;;;;;;;;5031938;28;20025;-71
2021/07/22 01:05:03;;;;;;;2.25;1.30;;;;;;;;;;5031383;28;20033;-71
2021/07/22 01:07:29;;;;;;;1.75;1.30;;;;;;;;;;5031103;28;20042;-70
2021/07/22 01:09:54;;;;;;;3.63;1.70;;;;;;;;;;5033893;28;20025;-71
2021/07/22 01:12:20;;;;;;;2.75;1.35;;;;;;;;;;5035330;28;20366;-71
2021/07/22 01:14:46;;;;;;;3.45;1.45;;;;;;;;;;5040640;28;20117;-70
2021/07/22 01:17:44;;;;;;;1.88;1.20;;;;;;;;;;5050343;28;20021;-71
2021/07/22 01:20:22;;;;;;;1.70;1.23;;;;;;;;;;5054656;28;20103;-71
2021/07/22 01:22:50;;;;;;;2.85;1.45;;;;;;;;;;5042289;28;20041;-71
2021/07/22 01:25:16;;;;;;;1.95;1.33;;;;;;;;;;5040447;28;20029;-71
2021/07/22 01:27:42;;;;;;;2.33;1.45;;;;;;;;;;5034303;28;20079;-71
2021/07/22 01:30:12;;;;;;;3.25;1.33;;;;;;;;;;5034658;28;20029;-71
2021/07/22 01:32:39;;;;;;;2.78;1.52;;;;;;;;;;5013528;28;20022;-70
2021/07/22 01:35:05;;;;;;;2.83;1.50;;;;;;;;;;5032717;28;20025;-70
2021/07/22 01:37:30;;;;;;;3.33;1.50;;;;;;;;;;5035223;28;20364;-71
2021/07/22 01:39:56;;;;;;;4.22;1.60;;;;;;;;;;5054965;28;20020;-71
2021/07/22 01:42:21;;;;;;;6.10;1.77;;;;;;;;;;5039058;28;20650;-70
2021/07/22 01:44:47;;;;;;;2.10;1.48;;;;;;;;;;5040089;28;20065;-71
2021/07/22 01:47:13;;;;;;;2.78;1.50;;;;;;;;;;5034751;28;20030;-71
2021/07/22 01:49:38;;;;;;;3.33;1.65;;;;;;;;;;5035054;28;20029;-71
2021/07/22 01:52:05;;;;;;;2.33;1.60;;;;;;;;;;5034751;28;20037;-71
2021/07/22 01:54:31;;;;;;;4.28;1.65;;;;;;;;;;5035732;28;20449;-70
2021/07/22 01:56:58;;;;;;;2.67;1.67;;;;;;;;;;5043041;28;20021;-70
2021/07/22 01:59:35;;;;;;;3.63;1.73;;;;;;;;;;5054819;28;20021;-71
2021/07/22 02:02:01;;;;;;;2.42;1.50;;;;;;;;;;5052799;28;20200;-71
2021/07/22 02:04:26;;;;;;;3.53;1.55;;;;;;;;;;5035555;28;20032;-71
2021/07/22 02:06:52;;;;;;;3.78;1.80;;;;;;;;;;5035009;28;20021;-71
2021/07/22 02:09:17;;;;;;;3.33;1.63;;;;;;;;;;5033662;28;20064;-70
2021/07/22 02:11:43;;;;;;;3.10;1.75;;;;;;;;;;5048574;28;20044;-71
2021/07/22 02:14:08;;;;;;;4.65;1.70;;;;;;;;;;5054236;28;20017;-70
2021/07/22 02:16:33;;;;;;;2.90;1.50;;;;;;;;;;5039568;28;20029;-71
2021/07/22 02:18:59;;;;;;;3.20;1.77;;;;;;;;;;5033153;28;20025;-71
2021/07/22 02:21:24;;;;;;;4.10;2.00;;;;;;;;;;5033422;28;20075;-71
2021/07/22 02:23:50;;;;;;;4.38;1.55;;;;;;;;;;5044687;28;20030;-71
2021/07/22 02:26:15;;;;;;;2.45;1.65;;;;;;;;;;5040196;28;20099;-71
2021/07/22 02:28:41;;;;;;;2.83;1.35;;;;;;;;;;5053297;28;20025;-70
2021/07/22 02:31:06;;;;;;;3.38;1.73;;;;;;;;;;5053006;28;20027;-70
2021/07/22 02:33:32;;;;;;;4.28;1.48;;;;;;;;;;5053352;28;20579;-70
2021/07/22 02:35:57;;;;;;;6.82;1.80;;;;;;;;;;5043220;28;20052;-70
2021/07/22 02:38:24;;;;;;;3.75;1.58;;;;;;;;;;5041196;28;20060;-71
2021/07/22 02:40:49;;;;;;;2.42;1.65;;;;;;;;;;5053139;28;20089;-73
2021/07/22 02:43:15;;;;;;;2.95;1.45;;;;;;;;;;5052849;28;20020;-74
2021/07/22 02:45:40;;;;;;;3.22;1.60;;;;;;;;;;5033797;28;20109;-74
2021/07/22 02:48:06;;;;;;;2.40;1.35;;;;;;;;;;5040055;28;20020;-74
2021/07/22 02:50:32;;;;;;;2.65;1.23;;;;;;;;;;5053112;28;20036;-74
2021/07/22 02:53:01;;;;;;;2.67;1.15;;;;;;;;;;5053685;28;20027;-71
2021/07/22 02:55:26;;;;;;;3.47;1.40;;;;;;;;;;5042709;28;20029;-71
2021/07/22 02:57:52;;;;;;;2.38;1.20;;;;;;;;;;5032873;28;20531;-71
2021/07/22 03:00:18;;;;;;;2.70;1.38;;;;;;;;;;5032573;28;20117;-71
2021/07/22 03:02:43;;;;;;;3.65;1.30;;;;;;;;;;5033470;28;20115;-71
2021/07/22 03:05:09;;;;;;;2.63;1.55;;;;;;;;;;5032950;28;20033;-71
2021/07/22 03:07:35;;;;;;;2.47;1.30;;;;;;;;;;5032925;28;20461;-71
2021/07/22 03:10:00;;;;;;;4.80;1.65;;;;;;;;;;5036850;28;20546;-71
2021/07/22 03:12:26;;;;;;;2.60;1.40;;;;;;;;;;5032925;28;20049;-71
2021/07/22 03:14:51;;;;;;;2.60;1.58;;;;;;;;;;5032669;28;20029;-71
2021/07/22 03:17:17;;;;;;;3.70;1.60;;;;;;;;;;5048626;28;20430;-70
2021/07/22 03:19:42;;;;;;;3.25;1.58;;;;;;;;;;5043402;28;20029;-71
2021/07/22 03:22:08;;;;;;;4.53;1.77;;;;;;;;;;5032417;28;20040;-71
2021/07/22 03:24:33;;;;;;;5.22;1.80;;;;;;;;;;5032553;28;20029;-71
2021/07/22 03:26:59;;;;;;;2.70;1.75;;;;;;;;;;5031655;28;20417;-71
2021/07/22 03:29:25;;;;;;;3.60;1.80;;;;;;;;;;5032475;28;20057;-70
2021/07/22 03:31:50;;;;;;;3.67;1.83;;;;;;;;;;5031866;28;20052;-71
2021/07/22 03:34:17;;;;;;;3.30;1.98;;;;;;;;;;5032323;28;20481;-71
2021/07/22 03:36:44;;;;;;;2.75;1.70;;;;;;;;;;5032223;28;20100;-71
2021/07/22 03:39:13;;;;;;;2.95;1.70;;;;;;;;;;5045051;28;20379;-71
2021/07/22 03:41:47;;;;;;;3.83;1.60;;;;;;;;;;5037824;28;20472;-71
2021/07/22 03:44:12;;;;;;;3.33;1.50;;;;;;;;;;5047484;28;20415;-71
2021/07/22 03:46:38;;;;;;;4.80;1.85;;;;;;;;;;5031788;28;20052;-71
2021/07/22 03:49:04;;;;;;;3.30;1.67;;;;;;;;;;5031745;28;20104;-71
2021/07/22 03:51:29;;;;;;;5.30;2.60;;;;;;;;;;5031798;28;20385;-71
2021/07/22 03:53:55;;;;;;;3.10;1.70;;;;;;;;;;5031759;28;20080;-71
2021/07/22 03:56:20;;;;;;;2.85;1.65;;;;;;;;;;5031589;28;20033;-71
2021/07/22 03:58:45;;;;;;;4.97;2.03;;;;;;;;;;5031836;28;21251;-71
2021/07/22 04:01:11;;;;;;;2.83;1.60;;;;;;;;;;5031890;28;20041;-71
2021/07/22 04:03:38;;;;;;;6.85;1.88;;;;;;;;;;5035871;28;20028;-71
2021/07/22 04:06:03;;;;;;;3.70;1.70;;;;;;;;;;5032060;28;20057;-71
2021/07/22 04:08:29;;;;;;;4.47;1.67;;;;;;;;;;5031749;28;20469;-71
2021/07/22 04:10:54;;;;;;;2.85;1.50;;;;;;;;;;5045374;28;20025;-71
2021/07/22 04:13:20;;;;;;;5.22;2.00;;;;;;;;;;5052327;28;20025;-71
2021/07/22 04:15:45;;;;;;;4.82;1.90;;;;;;;;;;5044659;28;20423;-71
2021/07/22 04:18:10;;;;;;;2.53;1.60;;;;;;;;;;5050726;28;20036;-71
2021/07/22 04:20:36;;;;;;;3.67;2.08;;;;;;;;;;5051731;28;20025;-71
2021/07/22 04:23:01;;;;;;;4.60;2.60;;;;;;;;;;5042491;28;20480;-71
2021/07/22 04:25:27;;;;;;;4.57;2.42;;;;;;;;;;5032205;28;20392;-71
2021/07/22 04:27:53;;;;;;;3.50;2.55;;;;;;;;;;5032496;28;20033;-71
2021/07/22 04:30:18;;;;;;;5.18;2.60;;;;;;;;;;5032675;28;20061;-71
2021/07/22 04:32:47;;;;;;;7.57;2.80;;;;;;;;;;5044206;28;20377;-71
2021/07/22 04:35:14;;;;;;;5.68;3.38;;;;;;;;;;5031568;28;20029;-71
2021/07/22 04:37:39;;;;;;;7.97;3.55;;;;;;;;;;5032916;28;20099;-71
2021/07/22 04:40:06;;;;;;;5.53;3.67;;;;;;;;;;5045939;28;20025;-71
2021/07/22 04:42:33;;;;;;;5.70;3.33;;;;;;;;;;5031676;28;20033;-71
2021/07/22 04:44:59;;;;;;;4.90;2.92;;;;;;;;;;5034779;28;20067;-71
2021/07/22 04:47:24;;;;;;;5.55;3.25;;;;;;;;;;5035340;28;20053;-71
2021/07/22 04:49:50;;;;;;;6.90;3.38;;;;;;;;;;5038924;28;20095;-71
2021/07/22 04:52:15;;;;;;;5.32;3.35;;;;;;;;;;5046157;28;20056;-71
2021/07/22 04:54:40;;;;;;;6.10;3.60;;;;;;;;;;5042480;28;20027;-71
2021/07/22 04:57:06;;;;;;;8.20;4.28;;;;;;;;;;5034185;28;20033;-71
2021/07/22 04:59:31;;;;;;;7.55;3.92;;;;;;;;;;5031934;28;20389;-71
2021/07/22 05:01:57;;;;;;;6.10;3.75;;;;;;;;;;5033848;28;20041;-71
2021/07/22 05:04:23;;;;;;;6.53;3.20;;;;;;;;;;5034405;28;20029;-71
2021/07/22 05:06:48;;;;;;;4.38;2.70;;;;;;;;;;5035512;28;20076;-71
2021/07/22 05:09:13;;;;;;;4.50;2.80;;;;;;;;;;5036903;28;20064;-71
2021/07/22 05:11:39;;;;;;;5.65;2.35;;;;;;;;;;5035247;28;20029;-71
2021/07/22 05:14:04;;;;;;;3.90;2.30;;;;;;;;;;5035236;28;20036;-71
2021/07/22 05:16:30;;;;;;;5.70;2.25;;;;;;;;;;5044418;28;20029;-71
2021/07/22 05:18:55;;;;;;;3.58;2.17;;;;;;;;;;5054802;28;20102;-71
2021/07/22 05:21:21;;;;;;;6.03;2.08;;;;;;;;;;5049034;28;20453;-71
2021/07/22 05:23:46;;;;;;;3.20;1.83;;;;;;;;;;5034644;28;20025;-71
2021/07/22 05:26:12;;;;;;;5.00;1.88;;;;;;;;;;5054633;28;20032;-70
2021/07/22 05:28:38;;;;;;;2.83;1.95;;;;;;;;;;5055258;28;20104;-70
2021/07/22 05:31:08;;;;;;;3.72;1.65;;;;;;;;;;5054698;28;20079;-71
2021/07/22 05:33:35;;;;;;;2.97;1.67;;;;;;;;;;5040843;28;20029;-73
2021/07/22 05:36:03;;;;;;;3.53;1.90;;;;;;;;;;5034107;28;20049;-74
2021/07/22 05:38:32;;;;;;;2.35;1.65;;;;;;;;;;5041878;28;20035;-74
2021/07/22 05:41:02;;;;;;;3.90;1.80;;;;;;;;;;5053817;28;20052;-74
2021/07/22 05:43:28;;;;;;;97.53;5.90;;;;;;;;;;5042043;28;20036;-75
2021/07/22 05:45:54;;;;;;;3.08;1.50;;;;;;;;;;5035155;28;20037;-73
2021/07/22 05:48:19;;;;;;;1.10;0.45;;;;;;;;;;5034345;28;20033;-74
2021/07/22 05:50:46;;;;;;;0.03;0.03;;;;;;;;;;5034938;28;20121;-73
2021/07/22 05:53:11;;;;;;;0.68;0.63;;;;;;;;;;5034307;28;20025;-74
2021/07/22 05:55:37;;;;;;;0.50;0.50;;;;;;;;;;5034352;28;20029;-76
2021/07/22 05:58:02;;;;;;;0.00;0.00;;;;;;;;;;5041634;28;20112;-73
2021/07/22 06:00:34;;;;;;;0.30;0.30;;;;;;;;;;5040194;28;20095;-73
2021/07/22 06:03:02;;;;;;;1.00;0.77;;;;;;;;;;5034565;28;20033;-76
2021/07/22 06:05:28;;;;;;;0.20;0.20;;;;;;;;;;5034557;28;20026;-75
2021/07/22 06:07:53;;;;;;;0.82;0.55;;;;;;;;;;5039811;28;20023;-74
2021/07/22 06:10:20;;;;;;;0.80;0.25;;;;;;;;;;5034184;28;20040;-76
2021/07/22 06:12:46;;;;;;;0.10;0.08;;;;;;;;;;5037319;28;20428;-77
2021/07/22 06:15:11;;;;;;;0.10;0.10;;;;;;;;;;5034079;28;20116;-75
2021/07/22 06:17:37;;;;;;;0.35;0.30;;;;;;;;;;5039400;28;20492;-73
2021/07/22 06:20:04;;;;;;;0.10;0.00;;;;;;;;;;5035491;28;20103;-74
2021/07/22 06:22:30;;;;;;;2.88;1.35;;;;;;;;;;5033507;28;20037;-76
2021/07/22 06:24:55;;;;;;;1.40;1.00;;;;;;;;;;5033297;28;20044;-76
2021/07/22 06:27:21;;;;;;;2.22;0.77;;;;;;;;;;5033295;28;20087;-74
2021/07/22 06:29:46;;;;;;;2.65;1.20;;;;;;;;;;5032878;28;20018;-75
2021/07/22 06:32:12;;;;;;;2.83;1.30;;;;;;;;;;5032867;28;20014;-73
2021/07/22 06:34:37;;;;;;;2.50;1.30;;;;;;;;;;5033220;28;20022;-74
2021/07/22 06:37:03;;;;;;;3.47;1.27;;;;;;;;;;5037611;28;20032;-73
2021/07/22 06:39:35;;;;;;;2.35;0.80;;;;;;;;;;5037765;28;20033;-75
2021/07/22 06:42:04;;;;;;;0.93;0.52;;;;;;;;;;5048904;28;20037;-76
2021/07/22 06:44:30;;;;;;;1.73;0.90;;;;;;;;;;5034058;28;20037;-76
2021/07/22 06:46:55;;;;;;;2.53;0.90;;;;;;;;;;5034078;28;20084;-73
2021/07/22 06:49:21;;;;;;;4.18;1.33;;;;;;;;;;5043787;28;20466;-73
2021/07/22 06:51:51;;;;;;;1.95;0.70;;;;;;;;;;5034062;28;20021;-75
2021/07/22 06:54:17;;;;;;;2.70;1.00;;;;;;;;;;5034485;28;20029;-75
2021/07/22 06:56:43;;;;;;;0.70;0.60;;;;;;;;;;5048120;28;20540;-74
2021/07/22 06:59:09;;;;;;;1.73;0.80;;;;;;;;;;5039252;28;20112;-75
2021/07/22 07:01:35;;;;;;;0.88;0.70;;;;;;;;;;5038367;28;20523;-75
2021/07/22 07:04:02;;;;;;;2.38;0.77;;;;;;;;;;5033264;28;20037;-73
2021/07/22 07:06:28;;;;;;;1.15;0.80;;;;;;;;;;5037089;28;20021;-74
2021/07/22 07:08:54;;;;;;;2.42;0.50;;;;;;;;;;5038200;28;20033;-77
2021/07/22 07:11:19;;;;;;;1.25;1.05;;;;;;;;;;5041097;28;20028;-75
2021/07/22 07:13:44;;;;;;;78.63;5.22;;;;;;;;;;5044261;28;20110;-74
2021/07/22 07:16:10;;;;;;;0.03;0.03;;;;;;;;;;5040304;28;20029;-74
2021/07/22 07:18:36;;;;;;;2.42;1.52;;;;;;;;;;5041715;28;20029;-74
2021/07/22 07:21:03;;;;;;;4.40;1.55;;;;;;;;;;5033050;28;20127;-74
2021/07/22 07:23:29;;;;;;;3.42;2.03;;;;;;;;;;5032374;28;20048;-74
2021/07/22 07:25:54;;;;;;;3.40;1.40;;;;;;;;;;5038447;28;20057;-75
2021/07/22 07:28:20;;;;;;;2.20;1.60;;;;;;;;;;5036497;28;20429;-75
2021/07/22 07:30:46;;;;;;;4.78;2.58;;;;;;;;;;5034473;28;20035;-74
2021/07/22 07:33:11;;;;;;;0.20;0.15;;;;;;;;;;5033611;28;20029;-76
2021/07/22 07:35:36;;;;;;;36.10;3.13;;;;;;;;;;5042321;28;20108;-74
2021/07/22 07:38:02;;;;;;;11.18;1.08;;;;;;;;;;5042162;28;20484;-80
2021/07/22 07:40:28;;;;;;;1.55;1.10;;;;;;;;;;5036848;28;20384;-74
2021/07/22 07:42:53;;;;;;;2.03;0.65;;;;;;;;;;5049585;28;20025;-77
2021/07/22 07:45:19;;;;;;;1.27;0.70;;;;;;;;;;5033068;28;20362;-75
2021/07/22 07:47:47;;;;;;;0.63;0.60;;;;;;;;;;5035457;28;20026;-77
2021/07/22 07:50:13;;;;;;;0.43;0.32;;;;;;;;;;5032469;28;20431;-75
2021/07/22 07:52:39;;;;;;;0.47;0.47;;;;;;;;;;5032836;28;20465;-75
2021/07/22 07:55:07;;;;;;;0.63;0.43;;;;;;;;;;5032855;28;20064;-76
2021/07/22 07:57:32;;;;;;;1.90;0.73;;;;;;;;;;5045788;28;20045;-77
2021/07/22 07:59:58;;;;;;;1.25;0.55;;;;;;;;;;5041930;28;20033;-75
2021/07/22 08:02:24;;;;;;;0.60;0.28;;;;;;;;;;5039140;28;20040;-77
2021/07/22 08:04:50;;;;;;;1.25;0.73;;;;;;;;;;5036601;28;20086;-75
2021/07/22 08:07:15;;;;;;;1.05;0.40;;;;;;;;;;5039775;28;20087;-77
2021/07/22 08:09:41;;;;;;;1.33;0.63;;;;;;;;;;5032757;28;20036;-76
2021/07/22 08:12:06;;;;;;;0.40;0.40;;;;;;;;;;5040061;28;20461;-73
2021/07/22 08:14:37;;;;;;;0.60;0.50;;;;;;;;;;5033340;28;20036;-79
2021/07/22 08:17:04;;;;;;;0.57;0.40;;;;;;;;;;5037463;28;20059;-75
2021/07/22 08:19:29;;;;;;;0.70;0.40;;;;;;;;;;5048329;28;20463;-77
2021/07/22 08:21:55;;;;;;;0.75;0.50;;;;;;;;;;5056050;28;20115;-74
2021/07/22 08:24:27;;;;;;;3.72;1.77;;;;;;;;;;5042918;28;20025;-76
2021/07/22 08:26:53;;;;;;;5.20;2.20;;;;;;;;;;5037183;28;20025;-69
2021/07/22 08:29:19;;;;;;;3.50;1.83;;;;;;;;;;5041691;28;20033;-78
2021/07/22 08:31:44;;;;;;;4.55;2.00;;;;;;;;;;5049779;28;20100;-73
2021/07/22 08:34:15;;;;;;;4.97;2.55;;;;;;;;;;5043895;28;20044;-70
2021/07/22 08:36:42;;;;;;;2.92;1.85;;;;;;;;;;5040004;28;20036;-71
2021/07/22 08:39:08;;;;;;;3.83;2.15;;;;;;;;;;5040715;28;20018;-72
2021/07/22 08:41:34;;;;;;;3.33;1.75;;;;;;;;;;5051644;28;20048;-71
2021/07/22 08:44:05;;;;;;;3.30;2.17;;;;;;;;;;5054568;28;20033;-72
2021/07/22 08:46:31;;;;;;;3.03;1.95;;;;;;;;;;5054331;28;20059;-69
2021/07/22 08:48:57;;;;;;;5.18;2.17;;;;;;;;;;5043445;28;20029;-69
2021/07/22 08:51:25;;;;;;;3.65;2.20;;;;;;;;;;5036718;28;20474;-70
2021/07/22 08:53:52;;;;;;;4.82;2.53;;;;;;;;;;5038095;28;20109;-73
2021/07/22 08:56:22;;;;;;;5.10;2.67;;;;;;;;;;5040610;28;20032;-69
2021/07/22 08:58:48;;;;;;;4.70;2.53;;;;;;;;;;5050441;28;20400;-71
2021/07/22 09:01:16;;;;;;;5.43;2.50;;;;;;;;;;5047493;28;20049;-70
2021/07/22 09:03:42;;;;;;;4.85;2.47;;;;;;;;;;5044886;28;20404;-69
2021/07/22 09:06:16;;;;;;;4.57;2.40;;;;;;;;;;5039727;28;20033;-71
2021/07/22 09:08:42;;;;;;;3.60;2.47;;;;;;;;;;5035818;28;20481;-69
2021/07/22 09:11:10;;;;;;;4.00;2.17;;;;;;;;;;5040531;28;20033;-69
2021/07/22 09:13:36;;;;;;;4.45;2.40;;;;;;;;;;5047615;28;20039;-69
2021/07/22 09:16:02;;;;;;;4.35;2.55;;;;;;;;;;5051835;28;20029;-72
2021/07/22 09:18:39;;;;;;;5.97;2.30;;;;;;;;;;5035943;28;20028;-71
2021/07/22 09:21:24;;;;;;;3.10;2.10;;;;;;;;;;5034035;28;20032;-70
2021/07/22 09:24:17;;;;;;;3.42;2.28;;;;;;;;;;5050456;28;20025;-69
2021/07/22 09:26:46;;;;;;;4.25;2.20;;;;;;;;;;5028709;28;20041;-68
2021/07/22 09:29:12;;;;;;;4.65;2.00;;;;;;;;;;5047695;28;20044;-69
2021/07/22 09:31:48;;;;;;;3.50;2.28;;;;;;;;;;5037993;28;20105;-71
2021/07/22 09:34:24;;;;;;;3.20;2.20;;;;;;;;;;5034395;28;20498;-70
2021/07/22 09:36:51;;;;;;;3.33;2.10;;;;;;;;;;5036701;28;20551;-69
2021/07/22 09:39:20;;;;;;;4.78;2.38;;;;;;;;;;5035657;28;20040;-70
2021/07/22 09:41:57;;;;;;;3.38;2.13;;;;;;;;;;5035390;28;20029;-71
2021/07/22 09:44:30;;;;;;;5.05;2.05;;;;;;;;;;5039407;28;20108;-69
2021/07/22 09:46:57;;;;;;;4.25;2.33;;;;;;;;;;5041734;28;20025;-69
2021/07/22 09:49:33;;;;;;;3.50;2.45;;;;;;;;;;5045261;28;20457;-71
2021/07/22 09:52:02;;;;;;;3.20;2.15;;;;;;;;;;5044058;28;20044;-70
2021/07/22 09:54:34;;;;;;;3.88;2.30;;;;;;;;;;5035070;28;20022;-69
2021/07/22 09:57:02;;;;;;;3.50;2.08;;;;;;;;;;5036039;28;20406;-69
2021/07/22 09:59:29;;;;;;;3.45;2.15;;;;;;;;;;5034109;28;20032;-68
2021/07/22 10:01:58;;;;;;;4.60;2.25;;;;;;;;;;5033959;28;20052;-69
2021/07/22 10:04:23;;;;;;;3.65;2.30;;;;;;;;;;5032685;28;20026;-69
2021/07/22 10:06:51;;;;;;;4.18;2.13;;;;;;;;;;5034107;28;20091;-68
2021/07/22 10:09:21;;;;;;;3.38;1.95;;;;;;;;;;5033696;28;20113;-69
2021/07/22 10:11:48;;;;;;;3.33;2.15;;;;;;;;;;5034331;28;20025;-68
2021/07/22 10:14:16;;;;;;;4.07;2.25;;;;;;;;;;5034407;28;20025;-70
2021/07/22 10:16:43;;;;;;;3.88;2.10;;;;;;;;;;5033897;28;20452;-69
2021/07/22 10:19:10;;;;;;;2.90;2.20;;;;;;;;;;5040629;28;20026;-70
2021/07/22 10:21:36;;;;;;;3.67;1.98;;;;;;;;;;5016153;28;20030;-70
2021/07/22 10:24:04;;;;;;;3.55;2.05;;;;;;;;;;5037341;28;20420;-69
2021/07/22 10:26:30;;;;;;;3.58;2.22;;;;;;;;;;5029707;28;20029;-68
2021/07/22 10:28:55;;;;;;;2.92;1.92;;;;;;;;;;5033073;28;20477;-70
2021/07/22 10:31:23;;;;;;;4.03;2.13;;;;;;;;;;5034125;28;20021;-68
2021/07/22 10:33:48;;;;;;;3.17;2.20;;;;;;;;;;5034465;28;20377;-68
2021/07/22 10:36:16;;;;;;;2.90;2.08;;;;;;;;;;5034150;28;20051;-69
2021/07/22 10:38:48;;;;;;;3.15;2.08;;;;;;;;;;5038303;28;20025;-69
2021/07/22 10:41:43;;;;;;;3.30;2.30;;;;;;;;;;5035599;28;20542;-72
2021/07/22 10:44:14;;;;;;;3.28;2.03;;;;;;;;;;5048599;28;20037;-69
2021/07/22 10:46:57;;;;;;;3.45;2.10;;;;;;;;;;5053994;28;20029;-69
2021/07/22 10:49:43;;;;;;;3.35;2.30;;;;;;;;;;5023338;28;20075;-69
2021/07/22 10:52:11;;;;;;;5.60;2.40;;;;;;;;;;5040325;28;20025;-70
2021/07/22 10:54:44;;;;;;;5.90;2.85;;;;;;;;;;5033933;28;20377;-68
2021/07/22 10:57:35;;;;;;;3.33;2.03;;;;;;;;;;5040649;28;20032;-69
2021/07/22 11:00:02;;;;;;;4.20;2.45;;;;;;;;;;5026747;28;20489;-69
2021/07/22 11:02:42;;;;;;;3.80;1.90;;;;;;;;;;5023879;28;20041;-69
2021/07/22 11:05:30;;;;;;;2.88;1.90;;;;;;;;;;5018459;28;20465;-68
2021/07/22 11:08:19;;;;;;;2.55;1.80;;;;;;;;;;5011900;28;20042;-68
2021/07/22 11:11:13;;;;;;;3.83;2.20;;;;;;;;;;5006214;28;20022;-69
2021/07/22 11:13:41;;;;;;;4.32;2.33;;;;;;;;;;5017362;28;20120;-69
2021/07/22 11:16:32;;;;;;;3.05;2.10;;;;;;;;;;5019736;28;20044;-69
2021/07/22 11:18:59;;;;;;;3.10;1.95;;;;;;;;;;5016931;28;20470;-68
2021/07/22 11:21:27;;;;;;;3.70;2.20;;;;;;;;;;5013105;28;20036;-68
2021/07/22 11:24:18;;;;;;;3.42;2.33;;;;;;;;;;5017777;28;20057;-76
2021/07/22 11:26:49;;;;;;;4.75;2.20;;;;;;;;;;5014556;28;20448;-72
2021/07/22 11:29:16;;;;;;;3.35;2.08;;;;;;;;;;5014980;28;20036;-71
2021/07/22 11:31:53;;;;;;;3.70;2.33;;;;;;;;;;5014881;28;20407;-73
2021/07/22 11:34:28;;;;;;;3.15;2.05;;;;;;;;;;5013196;28;20088;-71
2021/07/22 11:36:58;;;;;;;2.90;2.03;;;;;;;;;;5014158;28;20500;-72
2021/07/22 11:39:43;;;;;;;3.20;2.20;;;;;;;;;;5019046;28;20513;-71
2021/07/22 11:42:11;;;;;;;2.92;1.92;;;;;;;;;;5012640;28;20022;-71
2021/07/22 11:44:37;;;;;;;3.28;2.10;;;;;;;;;;5012963;28;20032;-73
2021/07/22 11:47:13;;;;;;;4.10;2.25;;;;;;;;;;5019048;28;20392;-70
2021/07/22 11:49:38;;;;;;;3.78;1.98;;;;;;;;;;5023085;28;20036;-70
2021/07/22 11:52:04;;;;;;;3.53;2.00;;;;;;;;;;5017631;28;20377;-71
2021/07/22 11:54:30;;;;;;;2.83;2.00;;;;;;;;;;5022692;28;20034;-72
2021/07/22 11:56:57;;;;;;;2.83;1.65;;;;;;;;;;5018311;28;20021;-71
2021/07/22 11:59:31;;;;;;;3.38;1.98;;;;;;;;;;5023098;28;20022;-73
2021/07/22 12:01:58;;;;;;;4.75;1.90;;;;;;;;;;5026907;28;20065;-72
2021/07/22 12:04:29;;;;;;;7.30;1.90;;;;;;;;;;5032155;28;20106;-72
2021/07/22 12:06:57;;;;;;;3.38;2.45;;;;;;;;;;5035093;28;20029;-74
2021/07/22 12:09:23;;;;;;;4.15;1.98;;;;;;;;;;5027651;28;20029;-73
2021/07/22 12:11:52;;;;;;;3.03;1.83;;;;;;;;;;5036445;28;20071;-75
2021/07/22 12:14:30;;;;;;;4.85;2.03;;;;;;;;;;5033782;28;20041;-74
2021/07/22 12:17:00;;;;;;;3.38;1.98;;;;;;;;;;5042961;28;20024;-74
2021/07/22 12:19:26;;;;;;;4.40;1.70;;;;;;;;;;5050947;28;20029;-72
2021/07/22 12:22:20;;;;;;;2.38;1.40;;;;;;;;;;5051977;28;20025;-69
2021/07/22 12:24:47;;;;;;;4.05;1.52;;;;;;;;;;5050397;28;20043;-71
2021/07/22 12:27:34;;;;;;;2.80;1.60;;;;;;;;;;5040679;28;20025;-72
2021/07/22 12:30:02;;;;;;;2.85;1.90;;;;;;;;;;5030447;28;20392;-73
2021/07/22 12:32:29;;;;;;;2.28;1.80;;;;;;;;;;5038670;28;20057;-73
2021/07/22 12:34:55;;;;;;;3.15;1.98;;;;;;;;;;5033812;28;20030;-72
2021/07/22 12:38:00;;;;;;;3.17;1.92;;;;;;;;;;5039375;28;20028;-69
2021/07/22 12:40:48;;;;;;;2.80;1.83;;;;;;;;;;5033686;28;20022;-71
2021/07/22 12:43:21;;;;;;;3.50;2.00;;;;;;;;;;5036332;28;20029;-74
2021/07/22 12:45:53;;;;;;;2.35;1.95;;;;;;;;;;5031508;28;20049;-74
2021/07/22 12:48:38;;;;;;;4.10;1.70;;;;;;;;;;5040110;28;20100;-71
2021/07/22 12:51:11;;;;;;;2.60;1.83;;;;;;;;;;5040418;28;20048;-72
2021/07/22 12:53:37;;;;;;;3.83;1.80;;;;;;;;;;5033280;28;20037;-69
2021/07/22 12:56:02;;;;;;;2.78;1.88;;;;;;;;;;5031961;28;20033;-72
2021/07/22 12:58:34;;;;;;;3.42;1.92;;;;;;;;;;5035366;28;20097;-72
2021/07/22 13:01:05;;;;;;;3.15;2.03;;;;;;;;;;5074149;28;20128;-72
2021/07/22 13:03:35;;;;;;;2.63;1.73;;;;;;;;;;5031596;28;20041;-73
2021/07/22 13:06:01;;;;;;;2.80;2.00;;;;;;;;;;5032098;28;20033;-73
2021/07/22 13:08:26;;;;;;;2.88;1.83;;;;;;;;;;5039940;28;20419;-71
2021/07/22 13:10:52;;;;;;;3.17;1.98;;;;;;;;;;5034426;28;20037;-71
2021/07/22 13:13:18;;;;;;;5.75;1.92;;;;;;;;;;5050380;28;20040;-71
2021/07/22 13:15:44;;;;;;;4.35;1.60;;;;;;;;;;5049893;28;20020;-70
2021/07/22 13:18:09;;;;;;;2.80;1.55;;;;;;;;;;5036472;28;20037;-71
2021/07/22 13:20:35;;;;;;;2.45;1.70;;;;;;;;;;5037687;28;20041;-69
2021/07/22 13:23:01;;;;;;;2.83;1.75;;;;;;;;;;5039678;28;20029;-71
2021/07/22 13:25:26;;;;;;;3.50;1.85;;;;;;;;;;5039287;28;20026;-72
2021/07/22 13:27:52;;;;;;;2.40;1.60;;;;;;;;;;5051357;28;20036;-71
2021/07/22 13:30:18;;;;;;;4.35;2.00;;;;;;;;;;5039894;28;20461;-71
2021/07/22 13:32:43;;;;;;;2.92;1.85;;;;;;;;;;5034765;28;20114;-71
2021/07/22 13:35:11;;;;;;;3.05;1.92;;;;;;;;;;5035265;28;20017;-72
2021/07/22 13:37:37;;;;;;;2.78;1.70;;;;;;;;;;5047723;28;20073;-72
2021/07/22 13:40:10;;;;;;;3.10;1.98;;;;;;;;;;5041623;28;20035;-72
2021/07/22 13:42:37;;;;;;;3.75;1.90;;;;;;;;;;5034535;28;20024;-72
2021/07/22 13:45:05;;;;;;;3.20;1.92;;;;;;;;;;5033711;28;20040;-72
2021/07/22 13:47:30;;;;;;;4.40;1.88;;;;;;;;;;5030774;28;20099;-72
2021/07/22 13:49:56;;;;;;;3.10;1.73;;;;;;;;;;5030651;28;20416;-72
2021/07/22 13:52:22;;;;;;;3.50;1.90;;;;;;;;;;5019010;28;20030;-73
2021/07/22 13:54:47;;;;;;;3.53;1.75;;;;;;;;;;5019918;28;20148;-72
2021/07/22 13:57:13;;;;;;;3.40;1.90;;;;;;;;;;5016909;28;20025;-72
2021/07/22 13:59:38;;;;;;;5.22;2.25;;;;;;;;;;5014281;28;20036;-72
2021/07/22 14:02:06;;;;;;;4.75;1.90;;;;;;;;;;5013901;28;20053;-72
2021/07/22 14:04:32;;;;;;;2.95;1.63;;;;;;;;;;5013840;28;20100;-74
2021/07/22 14:06:58;;;;;;;2.42;1.67;;;;;;;;;;5014637;28;20022;-74
2021/07/22 14:09:24;;;;;;;3.22;1.70;;;;;;;;;;5034781;28;20040;-72
2021/07/22 14:11:50;;;;;;;3.35;1.55;;;;;;;;;;5038861;28;20162;-72
2021/07/22 14:14:15;;;;;;;4.13;1.80;;;;;;;;;;5035734;28;20116;-76
2021/07/22 14:16:42;;;;;;;2.70;1.38;;;;;;;;;;5045913;28;20108;-75
2021/07/22 14:19:08;;;;;;;3.22;1.80;;;;;;;;;;5041725;28;20186;-74
2021/07/22 14:21:33;;;;;;;3.42;1.33;;;;;;;;;;5048499;28;20071;-73
2021/07/22 14:23:59;;;;;;;2.65;1.58;;;;;;;;;;5043811;28;20022;-72
2021/07/22 14:26:26;;;;;;;3.08;1.35;;;;;;;;;;5043434;28;20578;-75
2021/07/22 14:28:55;;;;;;;3.03;1.60;;;;;;;;;;5034456;28;20047;-73
2021/07/22 14:31:21;;;;;;;5.22;1.38;;;;;;;;;;5034630;28;20030;-73
2021/07/22 14:33:47;;;;;;;2.58;1.30;;;;;;;;;;5034495;28;20029;-73
2021/07/22 14:36:21;;;;;;;1.50;1.10;;;;;;;;;;5034854;28;20507;-73
2021/07/22 14:38:47;;;;;;;1.95;1.10;;;;;;;;;;5035036;28;20029;-71
2021/07/22 14:41:13;;;;;;;1.58;1.13;;;;;;;;;;5034369;28;20364;-73
2021/07/22 14:43:39;;;;;;;2.08;1.30;;;;;;;;;;5034422;28;20416;-71
2021/07/22 14:46:05;;;;;;;1.95;1.27;;;;;;;;;;5035122;28;20029;-73
2021/07/22 14:48:31;;;;;;;2.38;1.13;;;;;;;;;;5040492;28;20039;-72